createdAt,value
2019-05-05T00:01:41.711Z,7.98
2019-05-05T00:04:46.541Z,7.88
2019-05-05T00:07:25.393Z,7.83
2019-05-05T00:09:58.228Z,7.81
2019-05-05T00:12:52.708Z,7.89
2019-05-05T00:16:02.048Z,7.97
2019-05-05T00:18:34.737Z,8.00
2019-05-05T00:21:07.358Z,8.01
2019-05-05T00:23:39.460Z,7.99
2019-05-05T00:26:11.898Z,7.99
2019-05-05T00:28:44.900Z,8.04
2019-05-05T00:31:17.028Z,8.11
2019-05-05T00:33:48.207Z,8.15
2019-05-05T00:36:21.318Z,8.19
2019-05-05T00:38:55.242Z,8.19
2019-05-05T00:41:27.708Z,8.24
2019-05-05T00:44:00.239Z,8.22
2019-05-05T00:46:52.547Z,8.19
2019-05-05T00:49:25.449Z,8.21
2019-05-05T00:51:57.869Z,8.23
2019-05-05T00:54:30.526Z,8.24
2019-05-05T00:57:04.468Z,8.29
2019-05-05T00:59:36.748Z,8.25
2019-05-05T01:02:27.827Z,8.20
2019-05-05T01:05:09.758Z,8.14
2019-05-05T01:07:44.264Z,8.09
2019-05-05T01:10:16.228Z,8.03
2019-05-05T01:12:49.198Z,8.01
2019-05-05T01:15:21.578Z,7.97
2019-05-05T01:17:55.440Z,7.96
2019-05-05T01:20:29.648Z,7.89
2019-05-05T01:23:04.283Z,7.87
2019-05-05T01:25:36.210Z,7.77
2019-05-05T01:28:08.978Z,7.71
2019-05-05T01:30:44.522Z,7.61
2019-05-05T01:33:26.900Z,7.56
2019-05-05T01:35:58.828Z,7.53
2019-05-05T01:38:52.498Z,7.48
2019-05-05T01:41:30.638Z,7.43
2019-05-05T01:44:04.833Z,7.40
2019-05-05T01:46:37.146Z,7.43
2019-05-05T01:49:09.128Z,7.42
2019-05-05T01:51:41.119Z,7.41
2019-05-05T01:54:14.503Z,7.35
2019-05-05T01:56:47.018Z,7.32
2019-05-05T01:59:19.164Z,7.30
2019-05-05T02:01:51.228Z,7.28
2019-05-05T02:04:25.007Z,7.30
2019-05-05T02:06:57.232Z,7.27
2019-05-05T02:09:29.398Z,7.17
2019-05-05T02:12:01.416Z,7.05
2019-05-05T02:14:35.223Z,6.92
2019-05-05T02:17:07.588Z,6.90
2019-05-05T02:19:40.068Z,6.98
2019-05-05T02:22:14.465Z,6.91
2019-05-05T02:24:45.817Z,6.86
2019-05-05T02:27:19.656Z,6.90
2019-05-05T02:29:58.500Z,6.87
2019-05-05T02:32:55.504Z,6.84
2019-05-05T02:35:27.990Z,6.78
2019-05-05T02:38:00.402Z,6.78
2019-05-05T02:40:35.008Z,6.77
2019-05-05T02:43:08.159Z,6.76
2019-05-05T02:46:14.383Z,6.75
2019-05-05T02:48:48.768Z,6.77
2019-05-05T02:51:25.692Z,6.79
2019-05-05T02:53:59.848Z,6.79
2019-05-05T02:56:38.748Z,6.78
2019-05-05T02:59:14.805Z,6.80
2019-05-05T03:02:06.061Z,6.74
2019-05-05T03:04:38.559Z,6.72
2019-05-05T03:07:13.776Z,6.72
2019-05-05T03:09:47.928Z,6.71
2019-05-05T03:12:21.598Z,6.74
2019-05-05T03:14:56.098Z,6.79
2019-05-05T03:17:28.568Z,6.73
2019-05-05T03:20:00.617Z,6.73
2019-05-05T03:22:34.077Z,6.74
2019-05-05T03:25:06.441Z,6.71
2019-05-05T03:27:38.276Z,6.74
2019-05-05T03:30:10.345Z,6.75
2019-05-05T03:32:41.440Z,6.78
2019-05-05T03:35:14.540Z,6.73
2019-05-05T03:37:46.668Z,6.72
2019-05-05T03:40:24.128Z,6.68
2019-05-05T03:43:15.279Z,6.66
2019-05-05T03:45:54.489Z,6.70
2019-05-05T03:48:26.599Z,6.76
2019-05-05T03:50:59.249Z,6.75
2019-05-05T03:53:31.457Z,6.77
2019-05-05T03:56:03.980Z,6.76
2019-05-05T03:58:35.978Z,6.72
2019-05-05T04:01:59.538Z,6.73
2019-05-05T04:04:35.099Z,6.68
2019-05-05T04:07:07.322Z,6.67
2019-05-05T04:09:38.236Z,6.62
2019-05-05T04:12:10.237Z,6.55
2019-05-05T04:14:44.049Z,6.53
2019-05-05T04:17:44.142Z,6.59
2019-05-05T04:20:27.418Z,6.60
2019-05-05T04:22:59.478Z,6.61
2019-05-05T04:25:30.616Z,6.55
2019-05-05T04:28:04.388Z,6.52
2019-05-05T04:30:36.278Z,6.51
2019-05-05T04:33:07.276Z,6.49
2019-05-05T04:35:39.078Z,6.48
2019-05-05T04:38:11.318Z,6.46
2019-05-05T04:40:43.562Z,6.41
2019-05-05T04:43:18.338Z,6.40
2019-05-05T04:45:50.268Z,6.34
2019-05-05T04:48:27.631Z,6.37
2019-05-05T04:51:22.038Z,6.36
2019-05-05T04:54:15.018Z,6.41
2019-05-05T04:56:47.078Z,6.37
2019-05-05T04:59:19.397Z,6.39
2019-05-05T05:01:54.698Z,6.39
2019-05-05T05:04:33.546Z,6.43
2019-05-05T05:07:05.608Z,6.49
2019-05-05T05:09:36.567Z,6.49
2019-05-05T05:12:08.458Z,6.45
2019-05-05T05:14:41.552Z,6.47
2019-05-05T05:17:19.773Z,6.48
2019-05-05T05:19:54.098Z,6.46
2019-05-05T05:22:25.718Z,6.47
2019-05-05T05:24:58.639Z,6.43
2019-05-05T05:27:30.838Z,6.39
2019-05-05T05:30:02.218Z,6.40
2019-05-05T05:32:35.099Z,6.37
2019-05-05T05:35:06.187Z,6.38
2019-05-05T05:37:38.158Z,6.42
2019-05-05T05:40:23.640Z,6.47
2019-05-05T05:42:56.429Z,6.51
2019-05-05T05:45:56.499Z,6.51
2019-05-05T05:48:35.421Z,6.58
2019-05-05T05:51:10.044Z,6.70
2019-05-05T05:53:43.934Z,6.78
2019-05-05T05:56:16.158Z,6.80
2019-05-05T05:58:48.149Z,6.73
2019-05-05T06:01:20.198Z,6.70
2019-05-05T06:03:53.501Z,6.73
2019-05-05T06:06:24.668Z,6.69
2019-05-05T06:08:56.602Z,6.63
2019-05-05T06:11:28.541Z,6.59
2019-05-05T06:14:00.978Z,6.56
2019-05-05T06:16:34.148Z,6.50
2019-05-05T06:19:10.239Z,6.50
2019-05-05T06:21:43.855Z,6.54
2019-05-05T06:24:15.479Z,6.55
2019-05-05T06:26:47.948Z,6.56
2019-05-05T06:29:20.269Z,6.66
2019-05-05T06:31:53.621Z,6.63
2019-05-05T06:34:24.828Z,6.71
2019-05-05T06:36:56.968Z,6.81
2019-05-05T06:39:29.116Z,6.88
2019-05-05T06:42:37.086Z,6.95
2019-05-05T06:45:16.499Z,6.81
2019-05-05T06:47:48.700Z,6.81
2019-05-05T06:50:21.979Z,6.79
2019-05-05T06:52:53.671Z,6.85
2019-05-05T06:55:25.675Z,6.65
2019-05-05T06:57:57.618Z,6.70
2019-05-05T07:00:29.748Z,6.66
2019-05-05T07:03:01.770Z,6.68
2019-05-05T07:05:34.111Z,6.60
2019-05-05T07:08:06.449Z,6.65
2019-05-05T07:10:38.628Z,6.67
2019-05-05T07:13:10.838Z,6.77
2019-05-05T07:15:43.752Z,6.80
2019-05-05T07:18:15.347Z,6.66
2019-05-05T07:20:47.688Z,6.63
2019-05-05T07:23:20.178Z,6.67
2019-05-05T07:25:52.252Z,6.75
2019-05-05T07:28:25.388Z,6.84
2019-05-05T07:30:58.268Z,6.94
2019-05-05T07:33:34.364Z,6.87
2019-05-05T07:36:24.937Z,6.93
2019-05-05T07:38:57.039Z,6.86
2019-05-05T07:41:29.608Z,6.88
2019-05-05T07:44:01.776Z,6.99
2019-05-05T07:46:34.655Z,7.01
2019-05-05T07:49:07.811Z,6.93
2019-05-05T07:51:39.037Z,6.88
2019-05-05T07:54:10.948Z,6.80
2019-05-05T07:56:44.210Z,6.86
2019-05-05T07:59:15.548Z,6.92
2019-05-05T08:01:47.658Z,6.99
2019-05-05T08:04:20.019Z,7.00
2019-05-05T08:06:51.347Z,6.99
2019-05-05T08:09:24.956Z,7.10
2019-05-05T08:11:57.409Z,7.16
2019-05-05T08:14:28.758Z,7.20
2019-05-05T08:17:16.958Z,7.36
2019-05-05T08:19:54.378Z,7.55
2019-05-05T08:22:26.738Z,7.80
2019-05-05T08:25:08.363Z,8.07
2019-05-05T08:27:54.618Z,8.30
2019-05-05T08:30:38.959Z,8.27
2019-05-05T08:33:10.958Z,8.52
2019-05-05T08:35:44.847Z,8.77
2019-05-05T08:38:16.800Z,9.06
2019-05-05T08:40:48.878Z,9.21
2019-05-05T08:43:21.028Z,9.39
2019-05-05T08:45:52.217Z,9.50
2019-05-05T08:48:24.632Z,9.69
2019-05-05T08:50:56.842Z,9.77
2019-05-05T08:53:41.484Z,9.73
2019-05-05T08:56:04.061Z,9.79
2019-05-05T08:58:36.338Z,10.03
2019-05-05T09:01:07.528Z,10.33
2019-05-05T09:03:39.498Z,10.66
2019-05-05T09:06:10.660Z,11.04
2019-05-05T09:08:44.193Z,11.65
2019-05-05T09:11:16.331Z,12.14
2019-05-05T09:13:49.112Z,12.22
2019-05-05T09:16:21.699Z,11.78
2019-05-05T09:19:04.190Z,11.29
2019-05-05T09:21:36.660Z,11.13
2019-05-05T09:24:38.818Z,11.20
2019-05-05T09:27:41.309Z,11.17
2019-05-05T09:30:14.643Z,11.06
2019-05-05T09:32:46.639Z,10.94
2019-05-05T09:35:19.028Z,10.95
2019-05-05T09:37:53.611Z,10.96
2019-05-05T09:40:39.911Z,11.03
2019-05-05T09:43:12.098Z,10.90
2019-05-05T09:45:44.372Z,10.79
2019-05-05T09:48:15.397Z,10.60
2019-05-05T09:50:47.798Z,10.35
2019-05-05T09:53:18.857Z,10.44
2019-05-05T09:55:51.138Z,10.34
2019-05-05T09:58:24.197Z,10.54
2019-05-05T10:00:56.308Z,10.47
2019-05-05T10:03:28.448Z,10.56
2019-05-05T10:05:59.421Z,10.59
2019-05-05T10:08:31.466Z,10.58
2019-05-05T10:11:04.196Z,10.46
2019-05-05T10:13:36.478Z,10.43
2019-05-05T10:16:08.939Z,10.14
2019-05-05T10:18:41.762Z,10.03
2019-05-05T10:21:13.945Z,10.15
2019-05-05T10:23:46.917Z,10.61
2019-05-05T10:26:18.082Z,10.78
2019-05-05T10:28:51.228Z,10.86
2019-05-05T10:31:24.129Z,10.76
2019-05-05T10:33:59.761Z,10.64
2019-05-05T10:36:33.707Z,10.61
2019-05-05T10:39:12.180Z,10.72
2019-05-05T10:41:44.234Z,10.83
2019-05-05T10:44:16.843Z,11.02
2019-05-05T10:46:48.898Z,11.23
2019-05-05T10:49:24.242Z,11.27
2019-05-05T10:51:55.679Z,11.28
2019-05-05T10:54:40.725Z,11.29
2019-05-05T10:57:01.238Z,11.18
2019-05-05T10:59:34.449Z,11.12
2019-05-05T11:02:06.746Z,11.06
2019-05-05T11:04:38.882Z,11.01
2019-05-05T11:07:09.945Z,10.99
2019-05-05T11:09:44.235Z,11.12
2019-05-05T11:12:16.498Z,11.37
2019-05-05T11:14:48.558Z,11.64
2019-05-05T11:17:20.698Z,11.87
2019-05-05T11:19:51.926Z,11.90
2019-05-05T11:22:24.261Z,11.97
2019-05-05T11:25:00.855Z,11.93
2019-05-05T11:27:30.298Z,11.73
2019-05-05T11:30:26.810Z,11.83
2019-05-05T11:33:16.079Z,11.90
2019-05-05T11:36:13.699Z,11.93
2019-05-05T11:38:46.248Z,12.04
2019-05-05T11:41:19.002Z,12.03
2019-05-05T11:43:53.353Z,11.95
2019-05-05T11:46:25.050Z,11.85
2019-05-05T11:49:02.087Z,11.91
2019-05-05T11:51:35.948Z,12.05
2019-05-05T11:54:18.425Z,12.23
2019-05-05T11:56:50.739Z,12.50
2019-05-05T11:59:23.907Z,12.65
2019-05-05T12:01:58.378Z,12.66
2019-05-05T12:04:30.380Z,12.65
2019-05-05T12:07:14.644Z,12.60
2019-05-05T12:09:54.867Z,12.69
2019-05-05T12:12:27.228Z,12.55
2019-05-05T12:14:59.338Z,12.44
2019-05-05T12:17:35.620Z,12.45
2019-05-05T12:20:10.440Z,12.50
2019-05-05T12:22:44.801Z,12.55
2019-05-05T12:25:45.920Z,12.56
2019-05-05T12:28:34.918Z,12.51
2019-05-05T12:31:10.849Z,12.80
2019-05-05T12:33:46.267Z,13.18
2019-05-05T12:36:24.357Z,13.15
2019-05-05T12:38:55.860Z,12.99
2019-05-05T12:41:30.268Z,12.85
2019-05-05T12:44:07.499Z,12.93
2019-05-05T12:47:07.928Z,13.08
2019-05-05T12:49:43.903Z,13.21
2019-05-05T12:52:16.399Z,13.28
2019-05-05T12:54:48.769Z,13.27
2019-05-05T12:57:24.084Z,13.46
2019-05-05T12:59:57.272Z,13.50
2019-05-05T13:02:31.617Z,13.22
2019-05-05T13:05:06.649Z,13.65
2019-05-05T13:07:44.144Z,13.95
2019-05-05T13:10:28.868Z,14.12
2019-05-05T13:13:09.602Z,14.37
2019-05-05T13:15:47.078Z,14.52
2019-05-05T13:18:19.979Z,14.55
2019-05-05T13:21:04.748Z,14.93
2019-05-05T13:24:05.058Z,15.10
2019-05-05T13:26:53.686Z,14.89
2019-05-05T13:29:29.298Z,14.76
2019-05-05T13:32:01.169Z,14.60
2019-05-05T13:34:33.759Z,14.37
2019-05-05T13:37:09.488Z,14.28
2019-05-05T13:39:44.430Z,14.04
2019-05-05T13:42:16.339Z,14.09
2019-05-05T13:45:05.859Z,14.02
2019-05-05T13:47:38.186Z,14.07
2019-05-05T13:50:25.568Z,13.95
2019-05-05T13:53:04.987Z,14.09
2019-05-05T13:56:11.130Z,13.90
2019-05-05T14:03:08.769Z,14.33
2019-05-05T14:06:39.538Z,14.52
2019-05-05T14:10:25.889Z,14.21
2019-05-05T14:13:28.791Z,14.01
2019-05-05T14:16:34.076Z,13.73
2019-05-05T14:26:51.187Z,13.37
2019-05-05T14:30:05.818Z,13.48
2019-05-05T14:32:54.438Z,13.72
2019-05-05T14:36:04.822Z,14.24
2019-05-05T14:38:51.267Z,14.66
2019-05-05T14:41:35.253Z,15.16
2019-05-05T14:44:15.257Z,15.47
2019-05-05T14:46:54.862Z,15.66
2019-05-05T14:49:40.138Z,15.77
2019-05-05T14:52:28.897Z,15.84
2019-05-05T14:55:10.562Z,16.14
2019-05-05T14:57:53.457Z,16.31
2019-05-05T15:00:56.727Z,15.86
2019-05-05T15:04:16.518Z,15.12
2019-05-05T15:07:25.317Z,14.35
2019-05-05T15:11:01.048Z,14.01
2019-05-05T15:13:24.947Z,13.87
2019-05-05T15:16:10.002Z,13.99
2019-05-05T15:18:54.517Z,13.99
2019-05-05T15:21:26.017Z,13.91
2019-05-05T15:24:16.715Z,14.00
2019-05-05T15:27:00.698Z,13.68
2019-05-05T15:29:36.748Z,13.49
2019-05-05T15:32:14.778Z,13.44
2019-05-05T15:34:58.387Z,13.37
2019-05-05T15:37:38.899Z,13.26
2019-05-05T15:40:29.897Z,13.10
2019-05-05T15:43:20.987Z,12.97
2019-05-05T15:46:24.462Z,12.91
2019-05-05T15:49:00.649Z,12.88
2019-05-05T15:51:34.778Z,12.80
2019-05-05T15:54:54.637Z,12.67
2019-05-05T15:57:45.772Z,12.67
2019-05-05T16:00:18.318Z,12.65
2019-05-05T16:02:57.398Z,12.40
2019-05-05T16:05:34.384Z,12.27
2019-05-05T16:08:07.818Z,12.25
2019-05-05T16:10:44.010Z,12.18
2019-05-05T16:13:23.079Z,12.11
2019-05-05T16:16:15.533Z,12.03
2019-05-05T16:19:05.288Z,11.87
2019-05-05T16:21:54.424Z,11.82
2019-05-05T16:24:29.068Z,11.68
2019-05-05T16:27:01.168Z,11.63
2019-05-05T16:29:33.586Z,11.53
2019-05-05T16:32:18.534Z,11.46
2019-05-05T16:34:40.118Z,11.40
2019-05-05T16:37:11.175Z,11.32
2019-05-05T16:39:43.955Z,11.19
2019-05-05T16:42:16.158Z,11.19
2019-05-05T16:44:48.108Z,11.12
2019-05-05T16:47:20.159Z,11.12
2019-05-05T16:49:53.789Z,11.11
2019-05-05T16:52:35.468Z,11.12
2019-05-05T16:55:20.658Z,11.04
2019-05-05T16:57:52.658Z,11.04
2019-05-05T17:00:25.872Z,10.99
2019-05-05T17:02:57.928Z,10.90
2019-05-05T17:05:29.057Z,10.85
2019-05-05T17:08:00.950Z,10.73
2019-05-05T17:10:34.214Z,10.67
2019-05-05T17:13:16.698Z,10.57
2019-05-05T17:16:01.028Z,10.57
2019-05-05T17:18:39.063Z,10.51
2019-05-05T17:21:15.699Z,10.42
2019-05-05T17:23:47.678Z,10.37
2019-05-05T17:26:19.690Z,10.32
2019-05-05T17:28:51.798Z,10.31
2019-05-05T17:31:24.391Z,10.26
2019-05-05T17:33:56.818Z,10.22
2019-05-05T17:36:28.786Z,10.18
2019-05-05T17:39:00.949Z,10.16
2019-05-05T17:41:53.970Z,10.12
2019-05-05T17:44:47.988Z,10.04
2019-05-05T17:47:26.308Z,9.97
2019-05-05T17:50:07.288Z,9.89
2019-05-05T17:52:53.815Z,9.91
2019-05-05T17:55:28.893Z,9.86
2019-05-05T17:58:02.654Z,9.81
2019-05-05T18:00:39.913Z,9.77
2019-05-05T18:03:12.019Z,9.75
2019-05-05T18:06:15.158Z,9.72
2019-05-05T18:08:50.448Z,9.65
2019-05-05T18:11:31.198Z,9.59
2019-05-05T18:18:30.858Z,9.56
2019-05-05T18:22:59.298Z,9.38
2019-05-05T18:24:16.820Z,9.45
2019-05-05T18:27:45.980Z,9.42
2019-05-05T18:30:18.609Z,9.39
2019-05-05T18:32:59.677Z,9.32
2019-05-05T18:35:44.521Z,9.27
2019-05-05T18:38:16.698Z,9.22
2019-05-05T18:40:49.658Z,9.14
2019-05-05T18:43:28.118Z,9.05
2019-05-05T18:46:19.028Z,8.97
2019-05-05T18:48:51.018Z,8.89
2019-05-05T18:51:24.135Z,8.77
2019-05-05T18:53:56.178Z,8.66
2019-05-05T18:56:28.278Z,8.60
2019-05-05T18:59:04.598Z,8.52
2019-05-05T19:01:48.820Z,8.42
2019-05-05T19:04:31.497Z,8.33
2019-05-05T19:07:33.669Z,8.17
2019-05-05T19:10:06.198Z,8.07
2019-05-05T19:12:38.301Z,7.91
2019-05-05T19:15:10.180Z,7.82
2019-05-05T19:17:42.398Z,7.73
2019-05-05T19:20:29.259Z,7.73
2019-05-05T19:23:05.729Z,7.70
2019-05-05T19:25:36.738Z,7.66
2019-05-05T19:28:07.879Z,7.67
2019-05-05T19:30:39.798Z,7.57
2019-05-05T19:33:15.515Z,7.53
2019-05-05T19:35:47.878Z,7.42
2019-05-05T19:38:20.001Z,7.37
2019-05-05T19:40:56.013Z,7.31
2019-05-05T19:43:26.101Z,7.24
2019-05-05T19:45:57.197Z,7.12
2019-05-05T19:48:29.138Z,6.99
2019-05-05T19:51:04.683Z,6.96
2019-05-05T19:53:36.578Z,6.87
2019-05-05T19:56:08.858Z,6.88
2019-05-05T19:58:57.949Z,6.85
2019-05-05T20:01:17.758Z,6.78
2019-05-05T20:03:49.877Z,6.75
2019-05-05T20:06:25.456Z,6.71
2019-05-05T20:08:57.618Z,6.61
2019-05-05T20:11:30.298Z,6.54
2019-05-05T20:14:09.999Z,6.44
2019-05-05T20:17:01.569Z,6.34
2019-05-05T20:19:38.339Z,6.26
2019-05-05T20:22:10.638Z,6.24
2019-05-05T20:24:44.339Z,6.19
2019-05-05T20:27:16.528Z,6.12
2019-05-05T20:29:47.657Z,6.06
2019-05-05T20:32:25.136Z,6.02
2019-05-05T20:35:19.029Z,6.04
2019-05-05T20:38:10.079Z,5.98
2019-05-05T20:40:44.335Z,5.81
2019-05-05T20:43:17.358Z,5.72
2019-05-05T20:45:49.476Z,5.74
2019-05-05T20:48:21.648Z,5.74
2019-05-05T20:50:54.563Z,5.74
2019-05-05T20:53:26.148Z,5.72
2019-05-05T20:55:57.217Z,5.76
2019-05-05T20:58:29.208Z,5.77
2019-05-05T21:01:00.216Z,5.81
2019-05-05T21:03:34.464Z,5.81
2019-05-05T21:06:05.968Z,5.80
2019-05-05T21:08:38.027Z,5.81
2019-05-05T21:11:10.009Z,5.80
2019-05-05T21:13:41.918Z,5.84
2019-05-05T21:16:14.354Z,5.87
2019-05-05T21:18:46.680Z,5.88
2019-05-05T21:21:22.298Z,5.90
2019-05-05T21:23:58.759Z,5.85
2019-05-05T21:27:01.818Z,5.86
2019-05-05T21:29:41.890Z,5.94
2019-05-05T21:32:07.829Z,6.05
2019-05-05T21:34:39.878Z,6.14
2019-05-05T21:37:10.956Z,6.16
2019-05-05T21:39:45.298Z,6.19
2019-05-05T21:42:16.685Z,6.24
2019-05-05T21:44:48.737Z,6.28
2019-05-05T21:47:20.918Z,6.32
2019-05-05T21:49:54.248Z,6.37
2019-05-05T21:52:35.598Z,6.39
2019-05-05T21:55:15.170Z,6.40
2019-05-05T21:58:04.680Z,6.44
2019-05-05T22:00:54.904Z,6.47
2019-05-05T22:03:34.941Z,6.51
2019-05-05T22:06:08.802Z,6.50
2019-05-05T22:08:42.446Z,6.51
2019-05-05T22:11:14.845Z,6.50
2019-05-05T22:13:48.218Z,6.50
2019-05-05T22:16:20.469Z,6.48
2019-05-05T22:18:53.863Z,6.45
2019-05-05T22:21:35.695Z,6.39
2019-05-05T22:24:33.356Z,6.41
2019-05-05T22:27:07.350Z,6.41
2019-05-05T22:29:39.936Z,6.43
2019-05-05T22:32:14.011Z,6.39
2019-05-05T22:34:46.098Z,6.35
2019-05-05T22:37:19.219Z,6.37
2019-05-05T22:39:50.340Z,6.39
2019-05-05T22:42:24.512Z,6.38
2019-05-05T22:44:56.958Z,6.38
2019-05-05T22:47:29.168Z,6.40
2019-05-05T22:50:04.268Z,6.39
2019-05-05T22:52:36.160Z,6.40
2019-05-05T22:55:08.256Z,6.37
2019-05-05T22:57:40.438Z,6.39
2019-05-05T23:00:26.679Z,6.35
2019-05-05T23:03:00.748Z,6.34
2019-05-05T23:05:43.982Z,6.32
2019-05-05T23:08:18.629Z,6.28
2019-05-05T23:10:50.919Z,6.26
2019-05-05T23:13:23.418Z,6.27
2019-05-05T23:16:04.110Z,6.23
2019-05-05T23:18:36.300Z,6.23
2019-05-05T23:21:21.888Z,6.20
2019-05-05T23:24:24.738Z,6.18
2019-05-05T23:26:58.212Z,6.21
2019-05-05T23:29:30.229Z,6.19
2019-05-05T23:32:02.138Z,6.25
2019-05-05T23:34:34.214Z,6.27
2019-05-05T23:37:06.958Z,6.27
2019-05-05T23:39:39.628Z,6.26
2019-05-05T23:42:12.096Z,6.25
2019-05-05T23:44:44.246Z,6.27
2019-05-05T23:47:15.316Z,6.30
2019-05-05T23:49:47.318Z,6.32
2019-05-05T23:52:18.226Z,6.36
2019-05-05T23:54:50.339Z,6.39
2019-05-05T23:57:21.357Z,6.39
2019-05-05T23:59:53.938Z,6.36
